createdAt,value
2024-04-24T00:03:37.396Z,3.6048
2024-04-24T00:13:46.644Z,3.5650
2024-04-24T00:23:56.082Z,3.5376
2024-04-24T00:34:05.452Z,3.5160
2024-04-24T00:44:14.801Z,3.5154
2024-04-24T00:54:24.268Z,3.4682
2024-04-24T01:04:33.956Z,3.2708
2024-04-24T01:14:43.518Z,2.8934
2024-04-24T01:24:53.720Z,2.3841
2024-04-24T01:35:03.371Z,1.8085
2024-04-24T01:45:13.252Z,1.3614
2024-04-24T01:55:22.970Z,1.0468
2024-04-24T02:05:32.932Z,0.9017
2024-04-24T02:15:42.721Z,0.9346
2024-04-24T02:25:52.414Z,0.8534
2024-04-24T02:36:02.303Z,0.7783
2024-04-24T02:46:11.839Z,0.9536
2024-04-24T02:56:21.510Z,1.2774
2024-04-24T03:06:31.053Z,1.7277
2024-04-24T03:16:40.645Z,2.0408
2024-04-24T03:26:50.246Z,2.2465
2024-04-24T03:36:59.828Z,2.4013
2024-04-24T03:47:09.194Z,2.5750
2024-04-24T03:57:18.806Z,2.7141
2024-04-24T04:07:28.235Z,2.8097
2024-04-24T04:17:38.066Z,2.9360
2024-04-24T04:27:47.527Z,3.0681
2024-04-24T04:37:56.945Z,3.1719
2024-04-24T04:48:06.314Z,3.2888
2024-04-24T04:58:15.822Z,3.4384
2024-04-24T05:08:25.070Z,3.6236
2024-04-24T05:18:34.654Z,3.8382
2024-04-24T05:28:46.254Z,4.0847
2024-04-24T05:38:56.921Z,4.3350
2024-04-24T05:49:06.266Z,4.6147
2024-04-24T05:59:15.427Z,5.0193
2024-04-24T06:09:24.554Z,5.4667
2024-04-24T06:19:34.038Z,5.9549
2024-04-24T06:29:43.314Z,6.6066
2024-04-24T06:39:52.637Z,7.2279
2024-04-24T06:50:01.970Z,7.8815
2024-04-24T07:00:10.508Z,8.5913
2024-04-24T07:10:19.329Z,9.5192
2024-04-24T07:20:27.702Z,10.9193
2024-04-24T07:30:35.900Z,12.2539
2024-04-24T07:40:43.940Z,12.7513
2024-04-24T07:50:51.894Z,13.5927
2024-04-24T08:00:59.781Z,13.6326
2024-04-24T08:11:07.810Z,13.4577
2024-04-24T08:21:15.802Z,17.9759
2024-04-24T08:31:22.796Z,21.6590
2024-04-24T08:41:29.587Z,23.8145
2024-04-24T08:51:36.906Z,23.5945
2024-04-24T09:01:43.914Z,22.1340
2024-04-24T09:11:50.473Z,23.2995
2024-04-24T09:21:57.116Z,23.9793
2024-04-24T09:32:03.906Z,21.6324
2024-04-24T09:42:10.971Z,22.6301
2024-04-24T09:52:17.933Z,23.2389
2024-04-24T10:02:25.579Z,17.9974
2024-04-24T10:12:32.968Z,16.7082
2024-04-24T10:22:40.664Z,15.1012
2024-04-24T10:32:49.041Z,12.8350
2024-04-24T10:42:57.561Z,11.8123
2024-04-24T10:53:05.946Z,11.5370
2024-04-24T11:03:14.343Z,11.8962
2024-04-24T11:13:22.493Z,12.9565
2024-04-24T11:23:30.311Z,13.0617
2024-04-24T11:33:38.670Z,12.9301
2024-04-24T11:43:46.827Z,13.8378
2024-04-24T11:53:54.547Z,14.7038
2024-04-24T12:04:02.500Z,15.5185
2024-04-24T12:14:09.967Z,15.7766
2024-04-24T12:24:17.880Z,14.1392
2024-04-24T12:34:25.964Z,13.2994
2024-04-24T12:44:33.982Z,13.3051
2024-04-24T12:54:42.258Z,12.5183
2024-04-24T13:04:50.335Z,12.6619
2024-04-24T13:14:58.180Z,14.9348
2024-04-24T13:25:07.254Z,16.8168
2024-04-24T13:35:15.359Z,15.8629
2024-04-24T13:45:23.256Z,14.7593
2024-04-24T13:55:30.972Z,13.9405
2024-04-24T14:05:39.213Z,12.7699
2024-04-24T14:15:47.324Z,11.6309
2024-04-24T14:25:55.843Z,11.1396
2024-04-24T14:36:04.148Z,11.3745
2024-04-24T14:46:12.199Z,11.6068
2024-04-24T14:56:20.223Z,11.5068
2024-04-24T15:06:28.457Z,11.5650
2024-04-24T15:16:36.780Z,12.2442
2024-04-24T15:26:44.900Z,12.2628
2024-04-24T15:36:52.945Z,12.2413
2024-04-24T15:47:01.063Z,11.9550
2024-04-24T15:57:09.359Z,11.9464
2024-04-24T16:07:22.513Z,11.8361
2024-04-24T16:17:30.606Z,11.0809
2024-04-24T16:27:38.952Z,10.9111
2024-04-24T16:37:47.814Z,10.4833
2024-04-24T16:47:56.580Z,10.1110
2024-04-24T16:58:05.182Z,9.9098
2024-04-24T17:08:13.772Z,10.2155
2024-04-24T17:18:23.440Z,9.0711
2024-04-24T17:28:32.329Z,8.1775
2024-04-24T17:38:41.352Z,7.5255
2024-04-24T17:48:50.169Z,7.0689
2024-04-24T17:58:58.967Z,6.6692
2024-04-24T18:09:07.877Z,6.3453
2024-04-24T18:19:17.193Z,5.9690
2024-04-24T18:29:26.183Z,5.6415
2024-04-24T18:39:35.339Z,5.5591
2024-04-24T18:49:44.600Z,5.6734
2024-04-24T18:59:53.673Z,5.7366
2024-04-24T19:10:02.885Z,5.4605
2024-04-24T19:20:12.192Z,5.0638
2024-04-24T19:30:21.401Z,4.7850
2024-04-24T19:40:30.675Z,4.6527
2024-04-24T19:50:39.771Z,4.6046
2024-04-24T20:00:49.207Z,4.6815
2024-04-24T20:10:58.417Z,4.7970
2024-04-24T20:21:07.759Z,4.8879
2024-04-24T20:31:17.051Z,5.0004
2024-04-24T20:41:26.163Z,5.0122
2024-04-24T20:51:35.495Z,4.7656
2024-04-24T21:01:44.563Z,4.5019
2024-04-24T21:11:53.882Z,4.2672
2024-04-24T21:22:03.119Z,4.0323
2024-04-24T21:32:12.414Z,3.5581
2024-04-24T21:42:21.540Z,3.0485
2024-04-24T21:52:30.699Z,3.0836
2024-04-24T22:02:40.449Z,3.5387
2024-04-24T22:12:49.834Z,3.9307
2024-04-24T22:22:59.147Z,4.0679
2024-04-24T22:33:08.277Z,4.2667
2024-04-24T22:43:17.553Z,4.4748
2024-04-24T22:53:26.711Z,4.5515
2024-04-24T23:03:36.129Z,4.1185
2024-04-24T23:13:45.571Z,3.8830
2024-04-24T23:23:54.915Z,4.1233
2024-04-24T23:34:04.174Z,4.2291
2024-04-24T23:44:13.546Z,4.2588
2024-04-24T23:54:23.084Z,4.1902
